Time;durP1;ratioP1;P1;durP2;ratioP2;P2;SDS_P1;SDS_P2;PMS_P1;PMS_P2;Temp;Humidity;BMP_temperature;BMP_pressure;BME280_temperature;BME280_humidity;BME280_pressure;Samples;Min_cycle;Max_cycle;Signal;HPM_P1;HPM_P2
2022/09/24 00:00:53;;;;;;;76.03;48.25;;;;;;;;;;5074036;28;20045;-72
2022/09/24 00:03:20;;;;;;;71.32;47.25;;;;;;;;;;5075369;28;20166;-72
2022/09/24 00:05:46;;;;;;;71.60;47.05;;;;;;;;;;5074798;28;20084;-72
2022/09/24 00:08:14;;;;;;;77.82;49.30;;;;;;;;;;5072759;28;20055;-72
2022/09/24 00:10:40;;;;;;;70.32;45.35;;;;;;;;;;5074572;28;20041;-71
2022/09/24 00:13:07;;;;;;;77.82;48.58;;;;;;;;;;5074881;28;20029;-72
2022/09/24 00:15:37;;;;;;;70.82;47.05;;;;;;;;;;5074572;28;20135;-72
2022/09/24 00:18:04;;;;;;;75.22;48.90;;;;;;;;;;5062501;28;20048;-72
2022/09/24 00:20:31;;;;;;;76.32;49.75;;;;;;;;;;5057812;28;20493;-72
2022/09/24 00:22:58;;;;;;;81.50;50.15;;;;;;;;;;5057003;28;20115;-68
2022/09/24 00:28:08;;;;;;;79.20;49.60;;;;;;;;;;5059874;28;20052;-72
2022/09/24 00:30:37;;;;;;;74.57;48.70;;;;;;;;;;5070689;28;20062;-72
2022/09/24 00:33:03;;;;;;;79.95;49.50;;;;;;;;;;5073360;28;20044;-72
2022/09/24 00:35:33;;;;;;;82.03;50.35;;;;;;;;;;5058230;28;20041;-72
2022/09/24 00:37:59;;;;;;;75.78;48.00;;;;;;;;;;5063114;28;20051;-72
2022/09/24 00:40:29;;;;;;;81.10;51.15;;;;;;;;;;5056163;28;20049;-72
2022/09/24 00:42:55;;;;;;;77.57;48.53;;;;;;;;;;5056772;28;20125;-72
2022/09/24 00:45:21;;;;;;;76.35;48.67;;;;;;;;;;5073395;28;20048;-72
2022/09/24 00:47:48;;;;;;;85.68;50.67;;;;;;;;;;5058554;28;20038;-72
2022/09/24 00:50:16;;;;;;;69.63;45.70;;;;;;;;;;5063274;28;20119;-72
2022/09/24 00:52:49;;;;;;;88.75;51.60;;;;;;;;;;5066632;28;20094;-72
2022/09/24 00:55:18;;;;;;;75.85;48.80;;;;;;;;;;5065189;28;20552;-72
2022/09/24 00:57:45;;;;;;;80.50;50.72;;;;;;;;;;5074059;28;20075;-71
2022/09/24 01:00:11;;;;;;;80.55;51.15;;;;;;;;;;5073908;28;20036;-72
2022/09/24 01:02:39;;;;;;;84.47;51.13;;;;;;;;;;5073730;28;20043;-72
2022/09/24 01:05:05;;;;;;;79.63;49.65;;;;;;;;;;5066324;28;20052;-72
2022/09/24 01:07:31;;;;;;;75.05;45.67;;;;;;;;;;5053519;28;20128;-72
2022/09/24 01:09:58;;;;;;;79.78;48.95;;;;;;;;;;5073641;28;20032;-72
2022/09/24 01:12:30;;;;;;;71.20;45.92;;;;;;;;;;5073904;28;20040;-72
2022/09/24 01:15:11;;;;;;;81.72;50.22;;;;;;;;;;5053909;28;20048;-72
2022/09/24 01:17:37;;;;;;;78.28;47.80;;;;;;;;;;5039550;28;20489;-68
2022/09/24 01:20:22;;;;;;;81.85;50.38;;;;;;;;;;5067350;28;20033;-68
2022/09/24 01:23:08;;;;;;;75.53;48.78;;;;;;;;;;5072762;28;20473;-68
2022/09/24 01:25:44;;;;;;;76.35;48.05;;;;;;;;;;5072785;28;20037;-69
2022/09/24 01:28:28;;;;;;;73.03;47.47;;;;;;;;;;5061795;28;20041;-72
2022/09/24 01:30:59;;;;;;;78.95;49.10;;;;;;;;;;5045074;28;20048;-72
2022/09/24 01:33:28;;;;;;;70.82;45.60;;;;;;;;;;5060675;28;20041;-72
2022/09/24 01:35:55;;;;;;;69.78;42.60;;;;;;;;;;5053350;28;20049;-68
2022/09/24 01:38:24;;;;;;;74.03;48.28;;;;;;;;;;5064839;28;20040;-68
2022/09/24 01:40:50;;;;;;;77.47;48.42;;;;;;;;;;5054899;28;20189;-72
2022/09/24 01:43:18;;;;;;;75.88;47.83;;;;;;;;;;5053439;28;20033;-72
2022/09/24 01:45:44;;;;;;;73.45;46.28;;;;;;;;;;5069106;28;20040;-72
2022/09/24 01:48:11;;;;;;;68.72;43.03;;;;;;;;;;5080396;28;20545;-72
2022/09/24 01:50:43;;;;;;;71.05;44.58;;;;;;;;;;5066290;28;20047;-68
2022/09/24 01:53:13;;;;;;;73.63;47.53;;;;;;;;;;5071573;28;20047;-68
2022/09/24 01:55:43;;;;;;;76.45;47.50;;;;;;;;;;5072457;28;20040;-68
2022/09/24 01:58:13;;;;;;;75.07;46.33;;;;;;;;;;5045889;28;20115;-68
2022/09/24 02:00:40;;;;;;;75.35;46.30;;;;;;;;;;5071158;28;20560;-69
2022/09/24 02:03:07;;;;;;;62.88;39.58;;;;;;;;;;5062825;28;20102;-70
2022/09/24 02:05:52;;;;;;;74.30;45.95;;;;;;;;;;5059322;28;20132;-68
2022/09/24 02:08:21;;;;;;;69.80;45.00;;;;;;;;;;5041052;28;20090;-69
2022/09/24 02:10:47;;;;;;;78.85;48.03;;;;;;;;;;5051659;28;20505;-68
2022/09/24 02:13:14;;;;;;;77.20;46.72;;;;;;;;;;5052236;28;20041;-68
2022/09/24 02:15:42;;;;;;;79.93;46.72;;;;;;;;;;5067624;28;20112;-69
2022/09/24 02:18:14;;;;;;;78.72;47.63;;;;;;;;;;5052422;28;20506;-69
2022/09/24 02:20:41;;;;;;;59.40;39.53;;;;;;;;;;5051940;28;20482;-69
2022/09/24 02:23:09;;;;;;;67.85;43.30;;;;;;;;;;5052436;28;20055;-69
2022/09/24 02:25:42;;;;;;;74.15;45.50;;;;;;;;;;5067414;28;20043;-69
2022/09/24 02:28:08;;;;;;;72.97;46.28;;;;;;;;;;5067178;28;20566;-69
2022/09/24 02:30:39;;;;;;;76.53;46.88;;;;;;;;;;5050689;28;20045;-69
2022/09/24 02:34:19;;;;;;;73.82;46.58;;;;;;;;;;5052251;28;20045;-68
2022/09/24 02:35:53;;;;;;;76.30;46.65;;;;;;;;;;5051654;28;20053;-68
2022/09/24 02:38:20;;;;;;;69.85;43.60;;;;;;;;;;5034492;28;20040;-68
2022/09/24 02:40:46;;;;;;;79.47;47.10;;;;;;;;;;5067290;28;20076;-68
2022/09/24 02:43:13;;;;;;;80.72;47.28;;;;;;;;;;5052009;28;20402;-69
2022/09/24 02:45:39;;;;;;;77.43;47.40;;;;;;;;;;5052233;28;20073;-72
2022/09/24 02:48:05;;;;;;;78.88;47.63;;;;;;;;;;5050970;28;20047;-72
2022/09/24 02:50:31;;;;;;;81.50;47.90;;;;;;;;;;5034511;28;20041;-72
2022/09/24 02:52:57;;;;;;;84.35;48.25;;;;;;;;;;5067288;28;20651;-68
2022/09/24 02:55:23;;;;;;;78.60;47.75;;;;;;;;;;5052110;28;20048;-68
2022/09/24 02:57:49;;;;;;;80.07;47.72;;;;;;;;;;5066878;28;20044;-68
2022/09/24 03:00:16;;;;;;;79.00;48.38;;;;;;;;;;5051754;28;20039;-68
2022/09/24 03:02:42;;;;;;;81.72;47.83;;;;;;;;;;5050730;28;20041;-68
2022/09/24 03:05:09;;;;;;;81.55;49.47;;;;;;;;;;5051543;28;20061;-68
2022/09/24 03:07:35;;;;;;;82.60;48.42;;;;;;;;;;5067344;28;20037;-68
2022/09/24 03:10:01;;;;;;;76.95;48.03;;;;;;;;;;5066887;28;20485;-68
2022/09/24 03:12:28;;;;;;;79.45;47.42;;;;;;;;;;5052083;28;20485;-68
2022/09/24 03:14:54;;;;;;;82.22;47.85;;;;;;;;;;5051512;28;20386;-68
2022/09/24 03:17:20;;;;;;;75.88;46.58;;;;;;;;;;5051523;28;20115;-68
2022/09/24 03:19:46;;;;;;;86.53;48.72;;;;;;;;;;5051349;28;20040;-68
2022/09/24 03:22:12;;;;;;;82.00;48.60;;;;;;;;;;5051791;28;20043;-69
2022/09/24 03:24:38;;;;;;;82.00;48.42;;;;;;;;;;5052018;28;20037;-71
2022/09/24 03:27:04;;;;;;;79.75;47.00;;;;;;;;;;5033936;28;20037;-72
2022/09/24 03:32:15;;;;;;;73.78;44.28;;;;;;;;;;5051974;28;20662;-71
2022/09/24 03:34:41;;;;;;;85.30;46.05;;;;;;;;;;5051875;28;20037;-72
2022/09/24 03:37:07;;;;;;;75.43;46.40;;;;;;;;;;5050672;28;20502;-72
2022/09/24 03:39:33;;;;;;;79.35;48.20;;;;;;;;;;5051810;28;20045;-72
2022/09/24 03:41:59;;;;;;;77.95;45.97;;;;;;;;;;5050988;28;20037;-72
2022/09/24 03:44:26;;;;;;;78.15;46.05;;;;;;;;;;5054116;28;20040;-72
2022/09/24 03:46:52;;;;;;;76.50;44.85;;;;;;;;;;5070726;28;20071;-72
2022/09/24 03:49:18;;;;;;;79.15;46.17;;;;;;;;;;5054126;28;20047;-68
2022/09/24 03:51:44;;;;;;;79.07;45.63;;;;;;;;;;5055445;28;20552;-68
2022/09/24 03:54:10;;;;;;;76.97;44.85;;;;;;;;;;5055030;28;20044;-68
2022/09/24 03:56:36;;;;;;;76.93;45.53;;;;;;;;;;5054881;28;20041;-68
2022/09/24 03:59:02;;;;;;;74.53;43.90;;;;;;;;;;5069987;28;20041;-68
2022/09/24 04:01:31;;;;;;;76.30;44.10;;;;;;;;;;5053297;28;20079;-68
2022/09/24 04:03:59;;;;;;;81.57;45.67;;;;;;;;;;5052706;28;20069;-68
2022/09/24 04:06:25;;;;;;;78.22;45.30;;;;;;;;;;5052259;28;20081;-68
2022/09/24 04:08:52;;;;;;;75.45;44.10;;;;;;;;;;5069315;28;20045;-68
2022/09/24 04:11:18;;;;;;;75.97;43.42;;;;;;;;;;5053452;28;20414;-68
2022/09/24 04:13:44;;;;;;;79.40;44.80;;;;;;;;;;5054539;28;20037;-68
2022/09/24 04:16:10;;;;;;;75.43;42.75;;;;;;;;;;5053276;28;20132;-68
2022/09/24 04:18:38;;;;;;;77.07;42.33;;;;;;;;;;5054936;28;20513;-72
2022/09/24 04:21:04;;;;;;;77.75;42.65;;;;;;;;;;5040599;28;20056;-72
2022/09/24 04:23:30;;;;;;;78.05;42.63;;;;;;;;;;5054815;28;20044;-71
2022/09/24 04:26:00;;;;;;;77.68;42.72;;;;;;;;;;5036585;28;20482;-72
2022/09/24 04:28:27;;;;;;;74.18;41.72;;;;;;;;;;5061230;28;20037;-72
2022/09/24 04:30:53;;;;;;;73.05;41.95;;;;;;;;;;5033481;28;20068;-72
2022/09/24 04:33:19;;;;;;;78.55;42.78;;;;;;;;;;5070303;28;20041;-71
2022/09/24 04:35:45;;;;;;;76.45;42.58;;;;;;;;;;5069750;28;20051;-71
2022/09/24 04:38:12;;;;;;;72.97;41.50;;;;;;;;;;5052818;28;20055;-72
2022/09/24 04:40:38;;;;;;;76.15;42.35;;;;;;;;;;5036261;28;20055;-72
2022/09/24 04:43:05;;;;;;;79.20;43.25;;;;;;;;;;5069327;28;20091;-72
2022/09/24 04:45:31;;;;;;;83.18;44.58;;;;;;;;;;5054050;28;20033;-72
2022/09/24 04:47:58;;;;;;;67.05;38.90;;;;;;;;;;5069184;28;20036;-72
2022/09/24 04:50:28;;;;;;;51.03;30.30;;;;;;;;;;5036247;28;20066;-72
2022/09/24 04:52:54;;;;;;;59.88;34.35;;;;;;;;;;5053580;28;20136;-72
2022/09/24 04:55:21;;;;;;;65.90;37.65;;;;;;;;;;5069790;28;20051;-72
2022/09/24 04:57:47;;;;;;;60.97;36.60;;;;;;;;;;5069161;28;20045;-71
2022/09/24 05:00:16;;;;;;;74.78;42.17;;;;;;;;;;5069088;28;20045;-72
2022/09/24 05:02:42;;;;;;;59.92;36.17;;;;;;;;;;5054131;28;20509;-70
2022/09/24 05:05:10;;;;;;;70.18;39.20;;;;;;;;;;5053539;28;20068;-70
2022/09/24 05:07:36;;;;;;;75.65;41.45;;;;;;;;;;5069417;28;20048;-70
2022/09/24 05:10:02;;;;;;;73.22;39.08;;;;;;;;;;5053558;28;20141;-70
2022/09/24 05:12:29;;;;;;;69.28;37.58;;;;;;;;;;5053686;28;20508;-71
2022/09/24 05:14:55;;;;;;;73.75;38.47;;;;;;;;;;5053884;28;20080;-71
2022/09/24 05:17:21;;;;;;;78.07;38.63;;;;;;;;;;5057357;28;20029;-71
2022/09/24 05:19:47;;;;;;;58.60;32.28;;;;;;;;;;5063234;28;20071;-71
2022/09/24 05:22:13;;;;;;;62.20;32.22;;;;;;;;;;5035630;28;20045;-71
2022/09/24 05:24:39;;;;;;;60.10;32.08;;;;;;;;;;5069489;28;20501;-71
2022/09/24 05:27:09;;;;;;;51.20;29.85;;;;;;;;;;5069273;28;20398;-71
2022/09/24 05:29:44;;;;;;;71.88;35.47;;;;;;;;;;5068697;28;20094;-71
2022/09/24 05:32:10;;;;;;;;;;;;;;;;;;5069326;28;20058;-72
2022/09/24 05:34:36;;;;;;;52.90;28.70;;;;;;;;;;5053421;28;20301;-72
2022/09/24 05:37:03;;;;;;;43.33;25.58;;;;;;;;;;5052283;28;20485;-72
2022/09/24 05:39:30;;;;;;;59.35;29.58;;;;;;;;;;5068552;28;20076;-72
2022/09/24 05:41:56;;;;;;;38.42;23.08;;;;;;;;;;5052055;28;20127;-72
2022/09/24 05:44:22;;;;;;;45.20;26.42;;;;;;;;;;5051547;28;20095;-73
2022/09/24 05:46:49;;;;;;;55.15;29.27;;;;;;;;;;5052284;28;20420;-73
2022/09/24 05:49:15;;;;;;;55.17;29.08;;;;;;;;;;5068185;28;20116;-73
2022/09/24 05:51:41;;;;;;;56.88;29.27;;;;;;;;;;5051966;28;20041;-73
2022/09/24 05:54:07;;;;;;;49.05;26.75;;;;;;;;;;5068207;28;20124;-74
2022/09/24 05:56:33;;;;;;;55.53;27.13;;;;;;;;;;5068280;28;20037;-74
2022/09/24 05:58:59;;;;;;;53.08;26.88;;;;;;;;;;5068636;28;20493;-75
2022/09/24 06:01:30;;;;;;;52.92;27.08;;;;;;;;;;5052518;28;20524;-73
2022/09/24 06:03:56;;;;;;;46.22;24.08;;;;;;;;;;5068298;28;20037;-73
2022/09/24 06:06:23;;;;;;;46.88;24.17;;;;;;;;;;5067184;28;20053;-75
2022/09/24 06:08:49;;;;;;;27.30;17.08;;;;;;;;;;5034799;28;20037;-73
2022/09/24 06:11:15;;;;;;;40.08;22.83;;;;;;;;;;5068125;28;20063;-73
2022/09/24 06:13:41;;;;;;;35.60;21.17;;;;;;;;;;5067962;28;20094;-73
2022/09/24 06:16:08;;;;;;;26.75;16.48;;;;;;;;;;5052429;28;20041;-72
2022/09/24 06:18:36;;;;;;;33.03;17.52;;;;;;;;;;5052510;28;20080;-69
2022/09/24 06:21:04;;;;;;;26.63;15.57;;;;;;;;;;5037389;28;20083;-72
2022/09/24 06:23:30;;;;;;;22.60;14.02;;;;;;;;;;5052550;28;20471;-73
2022/09/24 06:25:57;;;;;;;31.00;17.70;;;;;;;;;;5052669;28;20036;-73
2022/09/24 06:28:24;;;;;;;22.65;15.68;;;;;;;;;;5042699;28;20050;-73
2022/09/24 06:30:50;;;;;;;25.35;17.13;;;;;;;;;;5047855;28;20387;-73
2022/09/24 06:33:16;;;;;;;28.35;18.67;;;;;;;;;;5053049;28;20498;-73
2022/09/24 06:35:43;;;;;;;23.35;15.25;;;;;;;;;;5068353;28;20127;-75
2022/09/24 06:38:14;;;;;;;33.72;21.10;;;;;;;;;;5055686;28;20049;-73
2022/09/24 06:40:40;;;;;;;35.33;21.90;;;;;;;;;;5057277;28;20076;-74
2022/09/24 06:43:07;;;;;;;34.78;20.98;;;;;;;;;;5063709;28;20044;-72
2022/09/24 06:45:33;;;;;;;31.65;20.70;;;;;;;;;;5060810;28;20040;-72
2022/09/24 06:48:00;;;;;;;24.92;17.40;;;;;;;;;;5051201;28;20151;-72
2022/09/24 06:50:29;;;;;;;31.52;20.85;;;;;;;;;;5052475;28;20375;-72
2022/09/24 06:52:56;;;;;;;36.97;23.15;;;;;;;;;;5052320;28;20076;-71
2022/09/24 06:55:22;;;;;;;28.83;19.23;;;;;;;;;;5051291;28;20385;-72
2022/09/24 06:57:48;;;;;;;33.78;22.20;;;;;;;;;;5050983;28;20095;-72
2022/09/24 07:00:15;;;;;;;40.95;25.85;;;;;;;;;;5050909;28;20051;-73
2022/09/24 07:02:42;;;;;;;39.83;25.48;;;;;;;;;;5050986;28;20033;-70
2022/09/24 07:05:08;;;;;;;42.28;24.92;;;;;;;;;;5051605;28;20099;-70
2022/09/24 07:07:36;;;;;;;34.63;22.88;;;;;;;;;;5067490;28;20068;-70
2022/09/24 07:10:04;;;;;;;50.70;29.10;;;;;;;;;;5034669;28;20068;-70
2022/09/24 07:12:31;;;;;;;43.60;26.15;;;;;;;;;;5051718;28;20107;-72
2022/09/24 07:14:57;;;;;;;33.60;22.10;;;;;;;;;;5067606;28;20501;-70
2022/09/24 07:17:27;;;;;;;40.03;23.70;;;;;;;;;;5069968;28;20040;-69
2022/09/24 07:19:53;;;;;;;39.25;22.95;;;;;;;;;;5071546;28;20974;-69
2022/09/24 07:22:20;;;;;;;35.05;21.65;;;;;;;;;;5037515;28;20409;-72
2022/09/24 07:24:46;;;;;;;26.08;13.85;;;;;;;;;;5054979;28;20504;-72
2022/09/24 07:27:12;;;;;;;21.05;12.38;;;;;;;;;;5070889;28;20045;-73
2022/09/24 07:29:38;;;;;;;26.73;13.55;;;;;;;;;;5043609;28;20043;-73
2022/09/24 07:32:05;;;;;;;24.13;12.65;;;;;;;;;;5055730;28;20123;-72
2022/09/24 07:34:31;;;;;;;24.17;9.15;;;;;;;;;;5070803;28;20041;-73
2022/09/24 07:36:57;;;;;;;22.67;9.43;;;;;;;;;;5055812;28;20033;-73
2022/09/24 07:39:24;;;;;;;23.05;7.40;;;;;;;;;;5054512;28;20039;-73
2022/09/24 07:41:51;;;;;;;14.38;5.47;;;;;;;;;;5055504;28;20073;-69
2022/09/24 07:44:19;;;;;;;13.75;4.57;;;;;;;;;;5037704;28;20037;-72
2022/09/24 07:46:54;;;;;;;11.98;4.22;;;;;;;;;;5054623;28;20397;-73
2022/09/24 07:49:21;;;;;;;12.50;2.70;;;;;;;;;;5055555;28;20497;-73
2022/09/24 07:51:48;;;;;;;16.00;2.60;;;;;;;;;;5054464;28;20688;-73
2022/09/24 07:54:15;;;;;;;9.55;2.10;;;;;;;;;;5056056;28;20094;-74
2022/09/24 07:56:42;;;;;;;10.98;2.10;;;;;;;;;;5054700;28;20116;-74
2022/09/24 07:59:10;;;;;;;9.20;2.13;;;;;;;;;;5055883;28;20120;-73
2022/09/24 08:01:36;;;;;;;9.43;1.90;;;;;;;;;;5055355;28;20499;-73
2022/09/24 08:04:06;;;;;;;10.27;2.30;;;;;;;;;;5054569;28;20048;-75
2022/09/24 08:06:35;;;;;;;12.27;2.20;;;;;;;;;;5054057;28;20512;-74
2022/09/24 08:09:02;;;;;;;8.88;2.28;;;;;;;;;;5054352;28;20041;-74
2022/09/24 08:11:28;;;;;;;18.75;2.38;;;;;;;;;;5053850;28;20049;-74
2022/09/24 08:13:55;;;;;;;8.65;1.85;;;;;;;;;;5053833;28;20051;-70
2022/09/24 08:16:21;;;;;;;9.88;1.38;;;;;;;;;;5054691;28;20045;-70
2022/09/24 08:18:48;;;;;;;10.30;1.77;;;;;;;;;;5054682;28;20634;-70
2022/09/24 08:21:14;;;;;;;10.05;1.75;;;;;;;;;;5054708;28;20098;-70
2022/09/24 08:23:41;;;;;;;6.43;1.23;;;;;;;;;;5054535;28;20470;-69
2022/09/24 08:26:07;;;;;;;11.90;1.80;;;;;;;;;;5053308;28;20073;-69
2022/09/24 08:28:33;;;;;;;8.32;1.70;;;;;;;;;;5042322;28;20042;-70
2022/09/24 08:31:00;;;;;;;8.95;1.88;;;;;;;;;;5034537;28;20098;-70
2022/09/24 08:33:30;;;;;;;8.55;2.10;;;;;;;;;;5054238;28;20083;-70
2022/09/24 08:35:59;;;;;;;6.78;1.23;;;;;;;;;;5054614;28;20049;-70
2022/09/24 08:38:25;;;;;;;8.75;1.67;;;;;;;;;;5054163;28;20041;-70
2022/09/24 08:41:00;;;;;;;8.25;1.50;;;;;;;;;;5053123;28;20124;-69
2022/09/24 08:43:36;;;;;;;7.22;1.60;;;;;;;;;;5053096;28;20598;-70
2022/09/24 08:48:48;;;;;;;;;;;;;;;;;;5054362;28;20052;-71
2022/09/24 08:51:17;;;;;;;6.45;1.40;;;;;;;;;;5053263;28;20262;-70
2022/09/24 08:54:09;;;;;;;9.07;1.23;;;;;;;;;;5036116;28;20095;-70
2022/09/24 08:56:37;;;;;;;7.53;1.23;;;;;;;;;;5050725;28;20059;-70
2022/09/24 08:59:15;;;;;;;8.80;1.70;;;;;;;;;;5054092;28;20078;-71
2022/09/24 09:01:52;;;;;;;7.80;1.30;;;;;;;;;;5052412;28;20067;-70
2022/09/24 09:04:23;;;;;;;5.97;1.30;;;;;;;;;;5054235;28;20551;-70
2022/09/24 09:07:14;;;;;;;9.77;1.58;;;;;;;;;;5052637;28;20045;-69
2022/09/24 09:09:42;;;;;;;7.45;1.35;;;;;;;;;;5052491;28;20410;-70
2022/09/24 09:12:17;;;;;;;10.93;1.40;;;;;;;;;;5053894;28;20120;-69
2022/09/24 09:14:58;;;;;;;15.15;1.70;;;;;;;;;;5035795;28;20071;-69
2022/09/24 09:17:44;;;;;;;11.95;1.30;;;;;;;;;;5056414;28;20041;-74
2022/09/24 09:20:21;;;;;;;4.70;1.10;;;;;;;;;;5043418;28;20055;-75
2022/09/24 09:22:48;;;;;;;8.82;1.30;;;;;;;;;;5039235;28;20048;-74
2022/09/24 09:25:19;;;;;;;5.63;1.48;;;;;;;;;;5054157;28;20041;-74
2022/09/24 09:27:46;;;;;;;5.72;1.15;;;;;;;;;;5052790;28;20559;-72
2022/09/24 09:30:13;;;;;;;6.78;1.13;;;;;;;;;;5036216;28;20363;-71
2022/09/24 09:32:39;;;;;;;6.75;1.10;;;;;;;;;;5051783;28;20041;-70
2022/09/24 09:35:21;;;;;;;5.45;0.90;;;;;;;;;;5053843;28;20045;-76
2022/09/24 09:38:05;;;;;;;9.10;1.55;;;;;;;;;;5052489;28;20763;-74
2022/09/24 09:40:35;;;;;;;5.20;1.00;;;;;;;;;;5050992;28;20048;-73
2022/09/24 09:43:02;;;;;;;7.07;1.10;;;;;;;;;;5052549;28;20520;-74
2022/09/24 09:45:41;;;;;;;7.25;0.98;;;;;;;;;;5036005;28;20401;-74
2022/09/24 09:48:11;;;;;;;6.38;1.10;;;;;;;;;;5052594;28;20554;-74
2022/09/24 09:50:43;;;;;;;10.45;2.13;;;;;;;;;;5052334;28;20574;-74
2022/09/24 09:53:22;;;;;;;8.93;1.60;;;;;;;;;;5052346;28;20091;-73
2022/09/24 09:55:55;;;;;;;7.35;1.10;;;;;;;;;;5052259;28;20048;-73
2022/09/24 09:58:22;;;;;;;6.75;1.25;;;;;;;;;;5051935;28;20045;-74
2022/09/24 10:00:49;;;;;;;7.82;1.08;;;;;;;;;;5053095;28;20059;-71
2022/09/24 10:03:21;;;;;;;4.82;1.30;;;;;;;;;;5051477;28;20041;-70
2022/09/24 10:06:04;;;;;;;6.97;1.65;;;;;;;;;;5050974;28;20049;-70
2022/09/24 10:08:30;;;;;;;7.40;1.10;;;;;;;;;;5051446;28;20091;-70
2022/09/24 10:11:02;;;;;;;7.20;1.10;;;;;;;;;;5052603;28;20516;-69
2022/09/24 10:13:30;;;;;;;4.50;0.98;;;;;;;;;;5051428;28;20049;-70
2022/09/24 10:15:58;;;;;;;8.60;1.27;;;;;;;;;;5052666;28;20398;-70
2022/09/24 10:18:27;;;;;;;8.68;1.23;;;;;;;;;;5051535;28;20044;-70
2022/09/24 10:20:55;;;;;;;6.35;1.08;;;;;;;;;;5051056;28;20041;-70
2022/09/24 10:23:24;;;;;;;6.85;1.40;;;;;;;;;;5052586;28;20045;-70
2022/09/24 10:25:59;;;;;;;6.95;1.02;;;;;;;;;;5051081;28;20050;-69
2022/09/24 10:31:16;;;;;;;7.17;1.30;;;;;;;;;;5052578;28;20045;-70
2022/09/24 10:33:43;;;;;;;8.23;1.10;;;;;;;;;;5050993;28;20452;-70
2022/09/24 10:36:21;;;;;;;6.35;1.00;;;;;;;;;;5052064;28;20044;-70
2022/09/24 10:38:47;;;;;;;4.60;1.13;;;;;;;;;;5051866;28;20048;-70
2022/09/24 10:41:27;;;;;;;5.75;0.90;;;;;;;;;;5050752;28;20048;-70
2022/09/24 10:43:54;;;;;;;5.07;0.93;;;;;;;;;;5052435;28;20076;-74
2022/09/24 10:46:36;;;;;;;5.15;1.02;;;;;;;;;;5052484;28;20563;-74
2022/09/24 10:49:13;;;;;;;6.60;1.00;;;;;;;;;;5052633;28;20041;-74
2022/09/24 10:51:45;;;;;;;6.80;1.10;;;;;;;;;;5050547;28;20037;-74
2022/09/24 10:54:31;;;;;;;5.20;0.93;;;;;;;;;;5050976;28;20123;-73
2022/09/24 10:56:59;;;;;;;5.97;1.08;;;;;;;;;;5052504;28;20048;-73
2022/09/24 10:59:34;;;;;;;5.97;1.10;;;;;;;;;;5052583;28;20540;-73
2022/09/24 11:02:20;;;;;;;4.10;0.83;;;;;;;;;;5051762;28;20037;-73
2022/09/24 11:04:50;;;;;;;5.18;0.90;;;;;;;;;;5051455;28;20707;-73
2022/09/24 11:07:31;;;;;;;6.47;0.93;;;;;;;;;;5052053;28;20041;-74
2022/09/24 11:10:12;;;;;;;3.22;0.82;;;;;;;;;;5051067;28;20071;-74
2022/09/24 11:12:43;;;;;;;5.22;0.90;;;;;;;;;;5051296;28;20575;-73
2022/09/24 11:15:42;;;;;;;8.57;1.15;;;;;;;;;;5052156;28;20375;-73
2022/09/24 11:18:30;;;;;;;6.20;1.00;;;;;;;;;;5030807;28;20057;-70
2022/09/24 11:21:02;;;;;;;8.85;1.10;;;;;;;;;;5066073;28;20056;-70
2022/09/24 11:23:31;;;;;;;7.13;1.20;;;;;;;;;;5050642;28;20044;-70
2022/09/24 11:26:06;;;;;;;8.45;0.90;;;;;;;;;;5050224;28;20672;-70
2022/09/24 11:28:49;;;;;;;5.87;1.00;;;;;;;;;;5042188;28;20049;-74
2022/09/24 11:31:21;;;;;;;5.57;0.98;;;;;;;;;;5050610;28;20044;-74
2022/09/24 11:33:47;;;;;;;7.05;1.23;;;;;;;;;;5050318;28;20040;-73
2022/09/24 11:36:22;;;;;;;8.82;1.45;;;;;;;;;;5051335;28;20028;-70
2022/09/24 11:39:04;;;;;;;7.30;1.00;;;;;;;;;;5050210;28;20052;-69
2022/09/24 11:41:34;;;;;;;5.45;1.20;;;;;;;;;;5050185;28;20091;-69
2022/09/24 11:44:08;;;;;;;6.90;1.17;;;;;;;;;;5050106;28;20048;-69
2022/09/24 11:46:38;;;;;;;7.53;1.50;;;;;;;;;;5036773;28;20390;-69
2022/09/24 11:49:22;;;;;;;5.13;1.30;;;;;;;;;;5050030;28;20318;-69
2022/09/24 11:51:53;;;;;;;14.07;1.73;;;;;;;;;;5054252;28;20401;-69
2022/09/24 11:54:25;;;;;;;7.00;2.08;;;;;;;;;;5050197;28;20041;-69
2022/09/24 11:56:55;;;;;;;11.05;2.10;;;;;;;;;;5036611;28;20074;-69
2022/09/24 11:59:40;;;;;;;8.80;1.70;;;;;;;;;;5051384;28;20080;-69
2022/09/24 12:02:19;;;;;;;7.22;1.48;;;;;;;;;;5051288;28;20502;-73
2022/09/24 12:04:58;;;;;;;6.25;1.27;;;;;;;;;;5053416;28;20490;-73
2022/09/24 12:07:27;;;;;;;8.93;1.38;;;;;;;;;;5054900;28;20099;-73
2022/09/24 12:10:14;;;;;;;9.18;1.25;;;;;;;;;;5054687;28;20041;-73
2022/09/24 12:12:42;;;;;;;9.83;1.67;;;;;;;;;;5055004;28;20551;-68
2022/09/24 12:15:18;;;;;;;8.25;1.40;;;;;;;;;;5036730;28;20045;-69
2022/09/24 12:17:44;;;;;;;8.48;1.52;;;;;;;;;;5053374;28;20068;-69
2022/09/24 12:20:22;;;;;;;8.77;1.50;;;;;;;;;;5053409;28;20048;-69
2022/09/24 12:22:50;;;;;;;7.05;1.23;;;;;;;;;;5041117;28;20049;-68
2022/09/24 12:25:16;;;;;;;8.85;1.42;;;;;;;;;;5053540;28;20033;-69
2022/09/24 12:27:43;;;;;;;7.55;1.25;;;;;;;;;;5053197;28;20060;-68
2022/09/24 12:33:08;;;;;;;5.15;1.10;;;;;;;;;;5053661;28;20044;-74
2022/09/24 12:35:44;;;;;;;5.40;1.13;;;;;;;;;;5055069;28;20492;-73
2022/09/24 12:38:09;;;;;;;;;;;;;;;;;;5053695;28;20049;-72
2022/09/24 12:40:54;;;;;;;6.30;1.05;;;;;;;;;;5054375;28;20011;-69
2022/09/24 12:43:24;;;;;;;8.95;1.30;;;;;;;;;;5042133;28;20440;-73
2022/09/24 12:45:55;;;;;;;10.77;1.45;;;;;;;;;;5053161;28;20037;-72
2022/09/24 12:48:22;;;;;;;5.85;1.15;;;;;;;;;;5041108;28;20047;-69
2022/09/24 12:50:55;;;;;;;8.38;1.02;;;;;;;;;;5053118;28;20072;-69
2022/09/24 12:53:26;;;;;;;6.85;1.15;;;;;;;;;;5053817;28;20044;-69
2022/09/24 12:55:58;;;;;;;7.10;1.10;;;;;;;;;;5052722;28;20083;-68
2022/09/24 12:58:36;;;;;;;4.35;0.70;;;;;;;;;;5054012;28;20545;-69
2022/09/24 13:01:25;;;;;;;6.95;0.98;;;;;;;;;;5053710;28;20055;-69
2022/09/24 13:04:02;;;;;;;7.65;1.00;;;;;;;;;;5039689;28;20051;-69
2022/09/24 13:06:34;;;;;;;3.88;0.77;;;;;;;;;;5053650;28;20612;-73
2022/09/24 13:09:00;;;;;;;4.72;1.10;;;;;;;;;;5053459;28;20094;-72
2022/09/24 13:11:31;;;;;;;5.38;1.23;;;;;;;;;;5053849;28;20520;-69
2022/09/24 13:13:58;;;;;;;8.48;1.20;;;;;;;;;;5052192;28;20461;-69
2022/09/24 13:16:25;;;;;;;5.72;1.05;;;;;;;;;;5053681;28;20033;-69
2022/09/24 13:18:52;;;;;;;4.38;1.23;;;;;;;;;;5052366;28;20102;-69
2022/09/24 13:21:21;;;;;;;6.50;1.17;;;;;;;;;;5053367;28;20109;-69
2022/09/24 13:23:47;;;;;;;8.38;1.00;;;;;;;;;;5052397;28;20048;-72
2022/09/24 13:26:34;;;;;;;9.25;1.30;;;;;;;;;;5053270;28;20041;-72
2022/09/24 13:29:04;;;;;;;5.55;1.00;;;;;;;;;;5039606;28;20045;-73
2022/09/24 13:31:46;;;;;;;7.78;1.23;;;;;;;;;;5035913;28;20401;-72
2022/09/24 13:34:12;;;;;;;8.27;1.15;;;;;;;;;;5053313;28;20163;-72
2022/09/24 13:36:52;;;;;;;17.10;2.00;;;;;;;;;;5053268;28;20037;-72
2022/09/24 13:39:30;;;;;;;4.95;1.10;;;;;;;;;;5052763;28;20045;-69
2022/09/24 13:42:14;;;;;;;7.30;1.38;;;;;;;;;;5053068;28;20044;-69
2022/09/24 13:44:42;;;;;;;5.40;1.25;;;;;;;;;;5052280;28;20512;-74
2022/09/24 13:47:27;;;;;;;8.15;1.33;;;;;;;;;;5051467;28;20048;-72
2022/09/24 13:49:55;;;;;;;7.35;1.58;;;;;;;;;;5051815;28;20033;-72
2022/09/24 13:52:36;;;;;;;12.73;2.05;;;;;;;;;;5052930;28;20090;-72
2022/09/24 13:55:07;;;;;;;12.00;2.65;;;;;;;;;;5052811;28;20037;-73
2022/09/24 13:57:41;;;;;;;8.23;1.40;;;;;;;;;;5051691;28;20049;-72
2022/09/24 14:00:11;;;;;;;9.18;2.03;;;;;;;;;;5034738;28;20202;-74
2022/09/24 14:02:37;;;;;;;8.10;1.30;;;;;;;;;;5034823;28;20045;-69
2022/09/24 14:05:07;;;;;;;6.95;1.38;;;;;;;;;;5050945;28;20057;-69
2022/09/24 14:07:33;;;;;;;8.88;1.60;;;;;;;;;;5052923;28;20049;-72
2022/09/24 14:10:04;;;;;;;11.63;1.60;;;;;;;;;;5052696;28;20072;-72
2022/09/24 14:12:30;;;;;;;8.10;1.40;;;;;;;;;;5051726;28;20045;-74
2022/09/24 14:14:57;;;;;;;9.00;1.40;;;;;;;;;;5051487;28;20083;-72
2022/09/24 14:17:23;;;;;;;5.78;1.00;;;;;;;;;;5052144;28;20047;-72
2022/09/24 14:19:54;;;;;;;5.78;1.25;;;;;;;;;;5052696;28;20120;-72
2022/09/24 14:22:22;;;;;;;8.23;1.50;;;;;;;;;;5052369;28;20512;-72
2022/09/24 14:25:08;;;;;;;5.90;1.45;;;;;;;;;;5052236;28;20501;-72
2022/09/24 14:27:40;;;;;;;7.20;1.40;;;;;;;;;;5048944;28;20033;-72
2022/09/24 14:30:07;;;;;;;4.95;1.00;;;;;;;;;;5041893;28;20048;-73
2022/09/24 14:32:33;;;;;;;7.30;1.30;;;;;;;;;;5052274;28;20124;-72
2022/09/24 14:35:01;;;;;;;6.85;1.30;;;;;;;;;;5034741;28;20114;-73
2022/09/24 14:37:34;;;;;;;5.07;1.20;;;;;;;;;;5051988;28;20036;-73
2022/09/24 14:40:03;;;;;;;10.13;1.38;;;;;;;;;;5052375;28;20393;-73
2022/09/24 14:42:36;;;;;;;6.18;1.35;;;;;;;;;;5052051;28;20097;-73
2022/09/24 14:45:03;;;;;;;10.57;1.35;;;;;;;;;;5050894;28;20048;-72
2022/09/24 14:47:31;;;;;;;6.38;1.10;;;;;;;;;;5052324;28;20528;-73
2022/09/24 14:49:57;;;;;;;8.23;1.20;;;;;;;;;;5052681;28;20398;-72
2022/09/24 14:52:41;;;;;;;7.13;1.13;;;;;;;;;;5050505;28;20047;-72
2022/09/24 14:55:18;;;;;;;5.28;1.10;;;;;;;;;;5051950;28;20076;-74
2022/09/24 14:57:45;;;;;;;6.97;1.13;;;;;;;;;;5050865;28;20051;-72